Winthrop, MA

10:05 AM EST on January 31, 2015 (GMT -0500)
Winthrop Beach | Change Station
CLOSE
Current Station
Personal Weather Station
Location: Winthrop, MA
Elevation: 15 ft
Nearby Weather Stations
Active Advisory: Winter Storm Watch, Wind Advisory

Elev 15 ft 42.38 °N, 70.97 °W | Updated 12 minutes ago

Overcast
Overcast
13.9 °F
Feels Like -4 °F
N
21.0
Wind Variable Wind from NW
Gusts 30.0 mph

Today
High -- | Low -- °F
--% Chance of Precip.
Yesterday
High -- | Low -- °F
Precip. -- in
6:58 AM 4:56 PM
Waxing Gibbous, 90% visible
Pressure 29.83 in
Visibility 10.0 miles
Clouds Overcast 6500 ft
Windchill -4 °F
Dew Point 3 °F
Humidity 62%
Rainfall 0.00 in
Snow Depth Not available.
UV 0.9 out of 12
Pollen .10 out of 12
Air Quality Not available.
Flu Activity Not available.
METAR KBOS 311454Z 30023G33KT 10SM OVC065 M10/M19 A2984 RMK AO2 PK WND 29033/1454 VIS 1 1/4 E SLP102 60000 T11001194 53014

More Conditions Fewer Conditions

Pressure 29.83 in
Visibility 10.0 miles
Clouds Overcast 6500 ft
Windchill -4 °F
Dew Point 3 °F
Humidity 62%
Rainfall 0.00 in
Snow Depth Not available.
UV 0.9 out of 12
Pollen .10 out of 12
Air Quality Not available.
Flu Activity Not available.
METAR KBOS 311454Z 30023G33KT 10SM OVC065 M10/M19 A2984 RMK AO2 PK WND 29033/1454 VIS 1 1/4 E SLP102 60000 T11001194 53014

More Conditions Fewer Conditions

10-Day Weather Forecast

Almanac

Astronomy

Jan. 31, 2015 Rise Set
Actual Time
Civil Twilight
Nautical Twilight
Astronomical Twilight
Moon
Length of Visible Light
Length of Day
Tomorrow will be .
, % of the Moon is Illuminated

Today's Extremes

State Highs State Lows

Community

WunderPhotos

Upload Photos

1,792,080 photos uploaded!

WunderBlogs® & News

Nearby

Air Quality

  Air Quality AQ Index Pollutant
Not available.

Snow Depth

Station Depth Elevation

Earthquake Activity

City Distance Mag. Time & Date
Minimum magnitude displayed is 2.5.

Coastal Water Temperatures

Place Temperature

Nearby Weather Stations